Airfield :
LOGIN :

Register | Disclaimer

   EN    FR    IT 

 










Legend :    VFR   Marginal VFR   IFR   Intensive IFR   Very Intensive IFR
Visi :
Ceiling :
>= 8 km
>= 3000ft
5 to 8 km
1000 to 3000 ft
1500m to 5 km
500 to 1000 ft
800 to 1500m
200 to 500 ft
< 800m
< 200 ft
Symbols :   Thunderstorms  Fog  Heavy snow  Heavy precipitations  Wind > 20 kt
SIGMETs :     Misc.  Thunderstorms  Icing  Turbulence  Mountain Waves  Volcanic Ashes







- Airport Elevation : 266 ft
- IATA code : NCL
- Download approach charts


EGNT - Newcastle

CURRENT METAR :
  • 170320Z 25002KT 4000 BR BKN026 04/04 Q1007

EXPIRED METARs :
  • 170220Z 20001KT 3000 -RA BKN030 04/04 Q1006
  • 170150Z 21003KT 4000 -RA BKN025 04/04 Q1006
  • 170120Z VRB02KT 4500 -RA FEW005 BKN030 04/04 Q1005
  • 170050Z 12002KT 4500 -RA FEW005 BKN036 04/04 Q1005

TAF AMD TAF EGNT
Valid from the 17 at 01:00 until the 18 at 00:00 UTC


170128Z 1701/1724 24005KT 8000 SCT035
TEMPO 1701/1703 3000 RA BKN008
PROB30
TEMPO 1701/1703 BKN004
BECMG 1703/1705 9999
TEMPO 1705/1718 9000
BECMG 1715/1718 17012KT
PROB30
TEMPO 1718/1724 5000 -DZ BKN005
PROB30
TEMPO 1721/1724 18015G25KT
ATIS : +44 191 214 3400
No reported NOTAMs for that airfield.



MET'MAP, your aeronautical weather chart ! - Copyright ORBIFLY December 2007 - Disclaimer

ORBIFLY MET'MAP TEAM :

Programming & Development : Alexandra Zaïnal
Concept & Development : Baudouin d'Aumeries
Co-Development & Prog : Marc-Olivier Méhu
Technical & hardware support : Manuel Goepfert

Contact : metmap@orbifly.com




SOURCES & CREDITS :

   NOAA